sensor_id;sensor_type;location;lat;lon;timestamp;pressure;altitude;pressure_sealevel;temperature;humidity
7760;BME280;3924;48.830;9.262;2023-02-22T00:00:44;98536.06;;;6.49;74.35
7760;BME280;3924;48.830;9.262;2023-02-22T00:03:16;98534.69;;;6.51;74.24
7760;BME280;3924;48.830;9.262;2023-02-22T00:05:44;98533.66;;;6.52;74.36
7760;BME280;3924;48.830;9.262;2023-02-22T00:08:14;98536.59;;;6.51;74.28
7760;BME280;3924;48.830;9.262;2023-02-22T00:10:43;98532.84;;;6.52;74.44
7760;BME280;3924;48.830;9.262;2023-02-22T00:13:13;98526.38;;;6.48;74.23
7760;BME280;3924;48.830;9.262;2023-02-22T00:15:40;98535.50;;;6.47;74.59
7760;BME280;3924;48.830;9.262;2023-02-22T00:18:07;98528.78;;;6.39;74.49
7760;BME280;3924;48.830;9.262;2023-02-22T00:20:39;98527.41;;;6.42;74.51
7760;BME280;3924;48.830;9.262;2023-02-22T00:23:08;98529.28;;;6.36;74.66
7760;BME280;3924;48.830;9.262;2023-02-22T00:25:39;98533.06;;;6.35;74.55
7760;BME280;3924;48.830;9.262;2023-02-22T00:28:06;98530.09;;;6.32;74.83
7760;BME280;3924;48.830;9.262;2023-02-22T00:30:33;98538.72;;;6.39;74.57
7760;BME280;3924;48.830;9.262;2023-02-22T00:33:00;98531.72;;;6.33;74.79
7760;BME280;3924;48.830;9.262;2023-02-22T00:35:29;98521.19;;;6.31;74.96
7760;BME280;3924;48.830;9.262;2023-02-22T00:38:00;98515.00;;;6.30;74.84
7760;BME280;3924;48.830;9.262;2023-02-22T00:40:31;98522.53;;;6.28;74.96
7760;BME280;3924;48.830;9.262;2023-02-22T00:43:00;98520.94;;;6.27;75.06
7760;BME280;3924;48.830;9.262;2023-02-22T00:45:28;98519.56;;;6.30;75.10
7760;BME280;3924;48.830;9.262;2023-02-22T00:47:57;98521.19;;;6.31;75.13
7760;BME280;3924;48.830;9.262;2023-02-22T00:50:26;98525.78;;;6.30;75.23
7760;BME280;3924;48.830;9.262;2023-02-22T00:52:54;98519.03;;;6.28;75.12
7760;BME280;3924;48.830;9.262;2023-02-22T00:55:27;98516.06;;;6.24;75.26
7760;BME280;3924;48.830;9.262;2023-02-22T00:57:55;98528.47;;;6.25;75.21
7760;BME280;3924;48.830;9.262;2023-02-22T01:00:27;98525.75;;;6.20;75.33
7760;BME280;3924;48.830;9.262;2023-02-22T01:02:55;98517.38;;;6.17;75.26
7760;BME280;3924;48.830;9.262;2023-02-22T01:05:25;98512.28;;;6.15;75.38
7760;BME280;3924;48.830;9.262;2023-02-22T01:07:53;98506.34;;;6.13;75.31
7760;BME280;3924;48.830;9.262;2023-02-22T01:10:22;98502.84;;;6.08;75.38
7760;BME280;3924;48.830;9.262;2023-02-22T01:12:51;98499.59;;;6.11;75.53
7760;BME280;3924;48.830;9.262;2023-02-22T01:15:19;98506.34;;;6.13;75.39
7760;BME280;3924;48.830;9.262;2023-02-22T01:17:50;98500.38;;;6.01;75.54
7760;BME280;3924;48.830;9.262;2023-02-22T01:20:20;98490.41;;;5.91;75.66
7760;BME280;3924;48.830;9.262;2023-02-22T01:22:49;98501.44;;;5.95;75.77
7760;BME280;3924;48.830;9.262;2023-02-22T01:25:22;98498.22;;;5.93;75.83
7760;BME280;3924;48.830;9.262;2023-02-22T01:27:51;98492.50;;;5.89;75.87
7760;BME280;3924;48.830;9.262;2023-02-22T01:30:23;98486.31;;;5.89;75.96
7760;BME280;3924;48.830;9.262;2023-02-22T01:32:50;98476.63;;;5.78;75.90
7760;BME280;3924;48.830;9.262;2023-02-22T01:35:23;98481.41;;;5.75;76.00
7760;BME280;3924;48.830;9.262;2023-02-22T01:37:50;98488.69;;;5.75;76.21
7760;BME280;3924;48.830;9.262;2023-02-22T01:40:20;98489.50;;;5.75;76.34
7760;BME280;3924;48.830;9.262;2023-02-22T01:42:51;98479.31;;;5.78;76.21
7760;BME280;3924;48.830;9.262;2023-02-22T01:50:58;98473.34;;;5.75;76.29
7760;BME280;3924;48.830;9.262;2023-02-22T01:53:31;98471.75;;;5.74;76.50
7760;BME280;3924;48.830;9.262;2023-02-22T01:56:00;98468.50;;;5.72;76.48
7760;BME280;3924;48.830;9.262;2023-02-22T01:58:29;98468.22;;;5.69;76.43
7760;BME280;3924;48.830;9.262;2023-02-22T02:00:57;98466.63;;;5.73;76.42
7760;BME280;3924;48.830;9.262;2023-02-22T02:03:28;98462.06;;;5.73;76.63
7760;BME280;3924;48.830;9.262;2023-02-22T02:06:01;98457.75;;;5.72;76.67
7760;BME280;3924;48.830;9.262;2023-02-22T02:11:41;98451.84;;;5.70;76.66
7760;BME280;3924;48.830;9.262;2023-02-22T02:14:10;98451.53;;;5.67;76.75
7760;BME280;3924;48.830;9.262;2023-02-22T02:16:41;98455.00;;;5.62;76.78
7760;BME280;3924;48.830;9.262;2023-02-22T02:19:17;98437.00;;;5.58;76.75
7760;BME280;3924;48.830;9.262;2023-02-22T02:33:42;98425.41;;;5.52;77.08
7760;BME280;3924;48.830;9.262;2023-02-22T02:38:45;98428.09;;;5.52;77.09
7760;BME280;3924;48.830;9.262;2023-02-22T02:41:29;98423.81;;;5.56;76.99
7760;BME280;3924;48.830;9.262;2023-02-22T02:44:16;98421.41;;;5.60;77.15
7760;BME280;3924;48.830;9.262;2023-02-22T02:47:16;98414.13;;;5.60;77.22
7760;BME280;3924;48.830;9.262;2023-02-22T02:50:03;98420.88;;;5.63;77.12
7760;BME280;3924;48.830;9.262;2023-02-22T02:52:33;98405.81;;;5.62;77.11
7760;BME280;3924;48.830;9.262;2023-02-22T02:55:02;98415.75;;;5.61;77.14
7760;BME280;3924;48.830;9.262;2023-02-22T02:57:29;98408.25;;;5.63;76.98
7760;BME280;3924;48.830;9.262;2023-02-22T02:59:56;98408.78;;;5.65;77.22
7760;BME280;3924;48.830;9.262;2023-02-22T03:07:48;98399.66;;;5.66;77.25
7760;BME280;3924;48.830;9.262;2023-02-22T03:10:37;98396.97;;;5.66;77.12
7760;BME280;3924;48.830;9.262;2023-02-22T03:17:03;98395.34;;;5.65;77.35
7760;BME280;3924;48.830;9.262;2023-02-22T03:22:11;98383.22;;;5.58;77.33
7760;BME280;3924;48.830;9.262;2023-02-22T03:24:50;98378.13;;;5.56;77.61
7760;BME280;3924;48.830;9.262;2023-02-22T03:27:31;98381.88;;;5.60;77.59
7760;BME280;3924;48.830;9.262;2023-02-22T03:30:06;98377.84;;;5.58;77.52
7760;BME280;3924;48.830;9.262;2023-02-22T03:32:39;98384.03;;;5.58;77.62
7760;BME280;3924;48.830;9.262;2023-02-22T03:35:16;98374.34;;;5.57;77.58
7760;BME280;3924;48.830;9.262;2023-02-22T03:37:47;98378.13;;;5.56;77.59
7760;BME280;3924;48.830;9.262;2023-02-22T03:40:17;98384.56;;;5.60;77.55
7760;BME280;3924;48.830;9.262;2023-02-22T03:42:55;98373.53;;;5.57;77.61
7760;BME280;3924;48.830;9.262;2023-02-22T03:45:26;98382.41;;;5.57;77.52
7760;BME280;3924;48.830;9.262;2023-02-22T03:48:07;98374.84;;;5.54;77.63
7760;BME280;3924;48.830;9.262;2023-02-22T03:50:37;98378.59;;;5.48;77.78
7760;BME280;3924;48.830;9.262;2023-02-22T03:53:04;98386.13;;;5.46;77.66
7760;BME280;3924;48.830;9.262;2023-02-22T03:55:33;98379.69;;;5.47;77.92
7760;BME280;3924;48.830;9.262;2023-02-22T03:58:04;98375.13;;;5.42;77.96
7760;BME280;3924;48.830;9.262;2023-02-22T04:00:33;98378.88;;;5.46;77.91
7760;BME280;3924;48.830;9.262;2023-02-22T04:03:00;98376.72;;;5.43;77.98
7760;BME280;3924;48.830;9.262;2023-02-22T04:05:27;98378.59;;;5.48;78.00
7760;BME280;3924;48.830;9.262;2023-02-22T04:07:55;98381.81;;;5.45;77.89
7760;BME280;3924;48.830;9.262;2023-02-22T04:10:23;98379.94;;;5.45;78.07
7760;BME280;3924;48.830;9.262;2023-02-22T04:12:50;98373.47;;;5.41;78.07
7760;BME280;3924;48.830;9.262;2023-02-22T04:15:20;98381.53;;;5.36;78.08
7760;BME280;3924;48.830;9.262;2023-02-22T04:17:47;98383.66;;;5.34;78.36
7760;BME280;3924;48.830;9.262;2023-02-22T04:20:14;98378.28;;;5.34;78.23
7760;BME280;3924;48.830;9.262;2023-02-22T04:22:46;98368.88;;;5.32;78.22
7760;BME280;3924;48.830;9.262;2023-02-22T04:25:13;98374.78;;;5.29;78.29
7760;BME280;3924;48.830;9.262;2023-02-22T04:27:40;98356.47;;;5.26;78.31
7760;BME280;3924;48.830;9.262;2023-02-22T04:30:07;98367.78;;;5.28;78.02
7760;BME280;3924;48.830;9.262;2023-02-22T04:32:35;98364.53;;;5.26;78.31
7760;BME280;3924;48.830;9.262;2023-02-22T04:35:03;98374.50;;;5.25;78.30
7760;BME280;3924;48.830;9.262;2023-02-22T04:37:30;98367.19;;;5.20;78.48
7760;BME280;3924;48.830;9.262;2023-02-22T04:40:00;98369.09;;;5.20;78.21
7760;BME280;3924;48.830;9.262;2023-02-22T04:42:27;98361.25;;;5.13;78.37
7760;BME280;3924;48.830;9.262;2023-02-22T04:44:55;98366.91;;;5.12;78.41
7760;BME280;3924;48.830;9.262;2023-02-22T04:47:22;98373.63;;;5.14;78.50
7760;BME280;3924;48.830;9.262;2023-02-22T04:49:49;98358.84;;;5.12;78.53
7760;BME280;3924;48.830;9.262;2023-02-22T04:52:17;98359.38;;;5.14;78.47
7760;BME280;3924;48.830;9.262;2023-02-22T04:54:47;98361.56;;;5.17;78.34
7760;BME280;3924;48.830;9.262;2023-02-22T04:57:14;98355.88;;;5.13;78.45
7760;BME280;3924;48.830;9.262;2023-02-22T04:59:40;98351.31;;;5.14;78.43
7760;BME280;3924;48.830;9.262;2023-02-22T05:02:08;98356.47;;;5.15;78.58
7760;BME280;3924;48.830;9.262;2023-02-22T05:04:37;98360.47;;;5.13;78.22
7760;BME280;3924;48.830;9.262;2023-02-22T05:07:05;98363.41;;;5.11;78.33
7760;BME280;3924;48.830;9.262;2023-02-22T05:09:32;98359.63;;;5.07;78.62
7760;BME280;3924;48.830;9.262;2023-02-22T05:12:01;98356.94;;;5.07;78.53
7760;BME280;3924;48.830;9.262;2023-02-22T05:14:28;98353.69;;;5.00;78.53
7760;BME280;3924;48.830;9.262;2023-02-22T05:16:58;98354.25;;;5.02;78.54
7760;BME280;3924;48.830;9.262;2023-02-22T05:19:24;98343.47;;;4.97;78.64
7760;BME280;3924;48.830;9.262;2023-02-22T05:21:51;98347.50;;;5.00;78.82
7760;BME280;3924;48.830;9.262;2023-02-22T05:24:17;98344.53;;;4.96;78.65
7760;BME280;3924;48.830;9.262;2023-02-22T05:26:51;98346.69;;;4.99;78.84
7760;BME280;3924;48.830;9.262;2023-02-22T05:29:18;98349.91;;;4.96;78.52
7760;BME280;3924;48.830;9.262;2023-02-22T05:31:46;98348.53;;;4.93;78.77
7760;BME280;3924;48.830;9.262;2023-02-22T05:34:13;98342.63;;;4.91;78.98
7760;BME280;3924;48.830;9.262;2023-02-22T05:36:40;98339.13;;;4.91;78.79
7760;BME280;3924;48.830;9.262;2023-02-22T05:39:07;98333.22;;;4.89;78.65
7760;BME280;3924;48.830;9.262;2023-02-22T05:41:34;98331.59;;;4.88;78.76
7760;BME280;3924;48.830;9.262;2023-02-22T05:44:01;98335.63;;;4.90;78.86
7760;BME280;3924;48.830;9.262;2023-02-22T05:46:28;98334.31;;;4.93;79.06
7760;BME280;3924;48.830;9.262;2023-02-22T05:48:55;98342.63;;;4.91;78.93
7760;BME280;3924;48.830;9.262;2023-02-22T05:51:22;98336.44;;;4.91;78.78
7760;BME280;3924;48.830;9.262;2023-02-22T05:53:49;98335.34;;;4.87;78.90
7760;BME280;3924;48.830;9.262;2023-02-22T05:56:22;98321.38;;;4.85;78.87
7760;BME280;3924;48.830;9.262;2023-02-22T05:58:51;98339.09;;;4.86;78.77
7760;BME280;3924;48.830;9.262;2023-02-22T06:01:21;98324.03;;;4.80;78.97
7760;BME280;3924;48.830;9.262;2023-02-22T06:03:49;98328.84;;;4.78;78.94
7760;BME280;3924;48.830;9.262;2023-02-22T06:06:16;98327.28;;;4.82;79.23
7760;BME280;3924;48.830;9.262;2023-02-22T06:08:47;98324.06;;;4.85;79.14
7760;BME280;3924;48.830;9.262;2023-02-22T06:11:13;98329.44;;;4.85;78.93
7760;BME280;3924;48.830;9.262;2023-02-22T06:13:40;98326.75;;;4.85;78.95
7760;BME280;3924;48.830;9.262;2023-02-22T06:16:07;98326.75;;;4.85;78.95
7760;BME280;3924;48.830;9.262;2023-02-22T06:18:34;98336.41;;;4.86;79.14
7760;BME280;3924;48.830;9.262;2023-02-22T06:21:01;98325.09;;;4.79;78.89
7760;BME280;3924;48.830;9.262;2023-02-22T06:23:28;98325.44;;;4.87;78.92
7760;BME280;3924;48.830;9.262;2023-02-22T06:25:55;98336.41;;;4.81;78.93
7760;BME280;3924;48.830;9.262;2023-02-22T06:28:22;98336.38;;;4.76;78.93
7760;BME280;3924;48.830;9.262;2023-02-22T06:30:49;98338.53;;;4.79;79.20
7760;BME280;3924;48.830;9.262;2023-02-22T06:33:16;98346.88;;;4.82;79.15
7760;BME280;3924;48.830;9.262;2023-02-22T06:35:43;98343.09;;;4.78;79.06
7760;BME280;3924;48.830;9.262;2023-02-22T06:38:10;98344.19;;;4.82;79.00
7760;BME280;3924;48.830;9.262;2023-02-22T06:40:37;98347.16;;;4.86;79.01
7760;BME280;3924;48.830;9.262;2023-02-22T06:43:04;98349.34;;;4.89;79.06
7760;BME280;3924;48.830;9.262;2023-02-22T06:45:30;98358.19;;;4.89;78.99
7760;BME280;3924;48.830;9.262;2023-02-22T06:47:57;98352.03;;;4.94;78.78
7760;BME280;3924;48.830;9.262;2023-02-22T06:50:28;98349.38;;;4.99;79.02
7760;BME280;3924;48.830;9.262;2023-02-22T06:52:56;98354.00;;;5.09;78.78
7760;BME280;3924;48.830;9.262;2023-02-22T06:55:25;98352.69;;;5.16;78.94
7760;BME280;3924;48.830;9.262;2023-02-22T06:57:52;98353.22;;;5.18;78.70
7760;BME280;3924;48.830;9.262;2023-02-22T07:00:22;98361.84;;;5.26;78.71
7760;BME280;3924;48.830;9.262;2023-02-22T07:02:52;98353.78;;;5.26;78.47
7760;BME280;3924;48.830;9.262;2023-02-22T07:05:21;98366.22;;;5.42;78.59
7760;BME280;3924;48.830;9.262;2023-02-22T07:07:49;98363.53;;;5.47;78.53
7760;BME280;3924;48.830;9.262;2023-02-22T07:10:24;98370.03;;;5.56;78.19
7760;BME280;3924;48.830;9.262;2023-02-22T07:12:51;98360.91;;;5.62;78.35
7760;BME280;3924;48.830;9.262;2023-02-22T07:15:20;98358.22;;;5.67;78.22
7760;BME280;3924;48.830;9.262;2023-02-22T07:17:49;98357.19;;;5.79;78.10
7760;BME280;3924;48.830;9.262;2023-02-22T07:20:17;98360.94;;;5.83;77.90
7760;BME280;3924;48.830;9.262;2023-02-22T07:22:47;98360.19;;;5.92;77.80
7760;BME280;3924;48.830;9.262;2023-02-22T07:25:14;98361.53;;;5.95;77.55
7760;BME280;3924;48.830;9.262;2023-02-22T07:27:41;98361.03;;;5.98;77.58
7760;BME280;3924;48.830;9.262;2023-02-22T07:30:23;98366.41;;;6.08;77.40
7760;BME280;3924;48.830;9.262;2023-02-22T07:32:59;98362.09;;;6.12;77.54
7760;BME280;3924;48.830;9.262;2023-02-22T07:35:28;98363.72;;;6.18;77.40
7760;BME280;3924;48.830;9.262;2023-02-22T07:37:56;98383.63;;;6.22;77.38
7760;BME280;3924;48.830;9.262;2023-02-22T07:40:24;98373.13;;;6.21;77.06
7760;BME280;3924;48.830;9.262;2023-02-22T07:43:03;98374.47;;;6.23;77.20
7760;BME280;3924;48.830;9.262;2023-02-22T07:45:34;98368.03;;;6.19;77.14
7760;BME280;3924;48.830;9.262;2023-02-22T07:48:03;98371.00;;;6.18;77.34
7760;BME280;3924;48.830;9.262;2023-02-22T07:50:33;98371.78;;;6.23;77.37
7760;BME280;3924;48.830;9.262;2023-02-22T07:53:04;98364.28;;;6.25;77.22
7760;BME280;3924;48.830;9.262;2023-02-22T07:55:32;98373.41;;;6.40;77.07
7760;BME280;3924;48.830;9.262;2023-02-22T07:58:02;98367.75;;;6.46;76.89
7760;BME280;3924;48.830;9.262;2023-02-22T08:00:35;98373.41;;;6.60;76.77
7760;BME280;3924;48.830;9.262;2023-02-22T08:03:05;98366.94;;;6.66;76.44
7760;BME280;3924;48.830;9.262;2023-02-22T08:05:34;98377.97;;;6.80;76.45
7760;BME280;3924;48.830;9.262;2023-02-22T08:08:01;98370.41;;;6.87;76.25
7760;BME280;3924;48.830;9.262;2023-02-22T08:10:30;98371.47;;;6.91;76.22
7760;BME280;3924;48.830;9.262;2023-02-22T08:12:56;98366.06;;;6.91;76.09
7760;BME280;3924;48.830;9.262;2023-02-22T08:17:51;98365.78;;;7.03;75.97
7760;BME280;3924;48.830;9.262;2023-02-22T08:20:19;98367.38;;;7.09;75.85
7760;BME280;3924;48.830;9.262;2023-02-22T08:22:46;98368.97;;;7.15;75.71
7760;BME280;3924;48.830;9.262;2023-02-22T08:25:15;98369.72;;;7.26;75.53
7760;BME280;3924;48.830;9.262;2023-02-22T08:27:43;98368.09;;;7.35;75.42
7760;BME280;3924;48.830;9.262;2023-02-22T08:30:19;98361.84;;;7.39;75.30
7760;BME280;3924;48.830;9.262;2023-02-22T08:32:46;98361.03;;;7.44;75.32
7760;BME280;3924;48.830;9.262;2023-02-22T08:35:14;98363.97;;;7.53;75.20
7760;BME280;3924;48.830;9.262;2023-02-22T08:37:42;98365.00;;;7.62;74.88
7760;BME280;3924;48.830;9.262;2023-02-22T08:40:10;98368.72;;;7.71;74.75
7760;BME280;3924;48.830;9.262;2023-02-22T08:42:40;98362.22;;;7.77;74.66
7760;BME280;3924;48.830;9.262;2023-02-22T08:45:07;98360.03;;;7.84;74.43
7760;BME280;3924;48.830;9.262;2023-02-22T08:47:33;98364.00;;;7.97;74.44
7760;BME280;3924;48.830;9.262;2023-02-22T08:50:00;98362.00;;;8.08;74.11
7760;BME280;3924;48.830;9.262;2023-02-22T08:52:27;98362.75;;;8.18;73.92
7760;BME280;3924;48.830;9.262;2023-02-22T08:54:53;98360.25;;;8.27;73.75
7760;BME280;3924;48.830;9.262;2023-02-22T08:57:21;98369.94;;;8.33;73.72
7760;BME280;3924;48.830;9.262;2023-02-22T08:59:47;98371.03;;;8.32;73.52
7760;BME280;3924;48.830;9.262;2023-02-22T09:02:16;98365.38;;;8.29;73.70
7760;BME280;3924;48.830;9.262;2023-02-22T09:04:43;98355.94;;;8.26;73.41
7760;BME280;3924;48.830;9.262;2023-02-22T09:07:11;98363.75;;;8.28;73.52
7760;BME280;3924;48.830;9.262;2023-02-22T09:09:38;98359.16;;;8.28;73.58
7760;BME280;3924;48.830;9.262;2023-02-22T09:12:04;98364.81;;;8.32;73.41
7760;BME280;3924;48.830;9.262;2023-02-22T09:14:31;98350.22;;;8.33;73.56
7760;BME280;3924;48.830;9.262;2023-02-22T09:16:57;98352.13;;;8.32;73.19
7760;BME280;3924;48.830;9.262;2023-02-22T09:19:24;98355.88;;;8.36;73.14
7760;BME280;3924;48.830;9.262;2023-02-22T09:21:57;98373.38;;;8.44;73.16
7760;BME280;3924;48.830;9.262;2023-02-22T09:24:26;98358.53;;;8.41;73.19
7760;BME280;3924;48.830;9.262;2023-02-22T09:26:52;98366.63;;;8.46;73.15
7760;BME280;3924;48.830;9.262;2023-02-22T09:29:23;98365.00;;;8.45;72.93
7760;BME280;3924;48.830;9.262;2023-02-22T09:31:53;98362.25;;;8.50;72.85
7760;BME280;3924;48.830;9.262;2023-02-22T09:34:22;98358.38;;;8.62;72.65
7760;BME280;3924;48.830;9.262;2023-02-22T09:36:56;98367.72;;;8.74;72.60
7760;BME280;3924;48.830;9.262;2023-02-22T09:39:23;98366.53;;;8.86;72.47
7760;BME280;3924;48.830;9.262;2023-02-22T09:42:15;98364.50;;;8.96;72.14
7760;BME280;3924;48.830;9.262;2023-02-22T09:44:47;98352.47;;;9.13;71.81
7760;BME280;3924;48.830;9.262;2023-02-22T09:47:19;98357.78;;;9.18;71.82
7760;BME280;3924;48.830;9.262;2023-02-22T09:49:56;98349.03;;;9.26;71.67
7760;BME280;3924;48.830;9.262;2023-02-22T09:52:27;98346.88;;;9.47;71.11
7760;BME280;3924;48.830;9.262;2023-02-22T09:55:06;98349.03;;;9.69;70.91
7760;BME280;3924;48.830;9.262;2023-02-22T09:57:38;98351.28;;;9.80;70.71
7760;BME280;3924;48.830;9.262;2023-02-22T10:00:14;98348.97;;;9.93;70.62
7760;BME280;3924;48.830;9.262;2023-02-22T10:05:26;98333.91;;;10.24;69.80
7760;BME280;3924;48.830;9.262;2023-02-22T10:08:03;98340.78;;;10.49;69.35
7760;BME280;3924;48.830;9.262;2023-02-22T10:10:36;98337.84;;;10.64;69.27
7760;BME280;3924;48.830;9.262;2023-02-22T10:16:11;98336.84;;;10.88;68.83
7760;BME280;3924;48.830;9.262;2023-02-22T10:21:50;98334.78;;;11.26;68.10
7760;BME280;3924;48.830;9.262;2023-02-22T10:27:06;98315.13;;;11.57;67.24
7760;BME280;3924;48.830;9.262;2023-02-22T10:29:44;98319.47;;;11.80;66.84
7760;BME280;3924;48.830;9.262;2023-02-22T10:32:23;98326.00;;;11.93;66.57
7760;BME280;3924;48.830;9.262;2023-02-22T10:34:52;98320.09;;;12.13;66.17
7760;BME280;3924;48.830;9.262;2023-02-22T10:37:29;98315.22;;;12.24;65.80
7760;BME280;3924;48.830;9.262;2023-02-22T10:40:15;98302.75;;;12.45;65.20
7760;BME280;3924;48.830;9.262;2023-02-22T10:42:43;98301.22;;;12.62;65.01
7760;BME280;3924;48.830;9.262;2023-02-22T10:45:24;98306.41;;;12.72;64.94
7760;BME280;3924;48.830;9.262;2023-02-22T10:47:54;98304.53;;;12.81;64.51
7760;BME280;3924;48.830;9.262;2023-02-22T10:50:27;98314.13;;;12.78;64.44
7760;BME280;3924;48.830;9.262;2023-02-22T10:52:55;98304.34;;;12.77;64.23
7760;BME280;3924;48.830;9.262;2023-02-22T10:55:21;98302.88;;;12.71;64.42
7760;BME280;3924;48.830;9.262;2023-02-22T10:57:50;98301.94;;;12.76;64.21
7760;BME280;3924;48.830;9.262;2023-02-22T11:00:38;98301.31;;;12.79;63.96
7760;BME280;3924;48.830;9.262;2023-02-22T11:03:16;98296.50;;;12.76;64.08
7760;BME280;3924;48.830;9.262;2023-02-22T11:05:43;98297.94;;;12.73;63.80
7760;BME280;3924;48.830;9.262;2023-02-22T11:10:54;98302.47;;;12.86;63.71
7760;BME280;3924;48.830;9.262;2023-02-22T11:13:34;98300.22;;;12.88;63.38
7760;BME280;3924;48.830;9.262;2023-02-22T11:16:30;98290.59;;;12.82;63.51
7760;BME280;3924;48.830;9.262;2023-02-22T11:19:15;98292.84;;;12.80;63.40
7760;BME280;3924;48.830;9.262;2023-02-22T11:21:48;98286.63;;;12.88;63.28
7760;BME280;3924;48.830;9.262;2023-02-22T11:24:18;98278.19;;;12.99;63.03
7760;BME280;3924;48.830;9.262;2023-02-22T11:26:49;98287.72;;;13.19;62.51
7760;BME280;3924;48.830;9.262;2023-02-22T11:31:48;98270.44;;;13.23;62.18
7760;BME280;3924;48.830;9.262;2023-02-22T11:34:36;98273.50;;;13.30;62.08
7760;BME280;3924;48.830;9.262;2023-02-22T11:40:22;98269.53;;;13.45;61.73
7760;BME280;3924;48.830;9.262;2023-02-22T11:43:14;98275.75;;;13.28;61.88
7760;BME280;3924;48.830;9.262;2023-02-22T11:46:03;98265.38;;;13.39;61.78
7760;BME280;3924;48.830;9.262;2023-02-22T11:48:33;98259.59;;;13.40;61.50
7760;BME280;3924;48.830;9.262;2023-02-22T12:01:15;98257.81;;;13.45;61.24
7760;BME280;3924;48.830;9.262;2023-02-22T12:06:53;98241.31;;;13.93;60.24
7760;BME280;3924;48.830;9.262;2023-02-22T12:12:24;98234.06;;;14.23;59.61
7760;BME280;3924;48.830;9.262;2023-02-22T12:15:08;98214.78;;;14.37;59.16
7760;BME280;3924;48.830;9.262;2023-02-22T12:20:45;98214.25;;;13.88;60.12
7760;BME280;3924;48.830;9.262;2023-02-22T12:23:47;98213.25;;;13.92;59.86
7760;BME280;3924;48.830;9.262;2023-02-22T12:26:24;98211.41;;;14.40;59.05
7760;BME280;3924;48.830;9.262;2023-02-22T12:28:56;98205.25;;;14.69;58.64
7760;BME280;3924;48.830;9.262;2023-02-22T12:31:31;98210.25;;;14.96;57.90
7760;BME280;3924;48.830;9.262;2023-02-22T12:36:48;98216.84;;;15.16;57.22
7760;BME280;3924;48.830;9.262;2023-02-22T12:41:55;98205.09;;;14.65;57.92
7760;BME280;3924;48.830;9.262;2023-02-22T12:44:36;98203.69;;;14.50;58.26
7760;BME280;3924;48.830;9.262;2023-02-22T12:47:07;98196.63;;;14.41;57.89
7760;BME280;3924;48.830;9.262;2023-02-22T12:55:13;98199.56;;;14.27;58.25
7760;BME280;3924;48.830;9.262;2023-02-22T12:58:24;98194.09;;;14.27;58.03
7760;BME280;3924;48.830;9.262;2023-02-22T13:01:18;98203.13;;;14.19;58.30
7760;BME280;3924;48.830;9.262;2023-02-22T13:03:46;98199.63;;;14.10;58.14
7760;BME280;3924;48.830;9.262;2023-02-22T13:06:27;98208.44;;;14.07;58.32
7760;BME280;3924;48.830;9.262;2023-02-22T13:12:10;98200.88;;;14.21;57.78
7760;BME280;3924;48.830;9.262;2023-02-22T13:20:23;98196.84;;;14.27;57.84
7760;BME280;3924;48.830;9.262;2023-02-22T13:23:03;98197.00;;;14.31;57.49
7760;BME280;3924;48.830;9.262;2023-02-22T13:25:42;98184.34;;;14.26;57.62
7760;BME280;3924;48.830;9.262;2023-02-22T13:36:35;98189.00;;;14.72;56.78
7760;BME280;3924;48.830;9.262;2023-02-22T13:42:05;98190.06;;;15.10;55.94
7760;BME280;3924;48.830;9.262;2023-02-22T13:50:51;98179.22;;;15.22;55.92
7760;BME280;3924;48.830;9.262;2023-02-22T13:53:31;98164.31;;;15.19;55.86
7760;BME280;3924;48.830;9.262;2023-02-22T13:56:02;98176.91;;;15.12;56.16
7760;BME280;3924;48.830;9.262;2023-02-22T13:58:29;98173.03;;;15.13;56.09
7760;BME280;3924;48.830;9.262;2023-02-22T14:00:58;98176.22;;;15.15;56.15
7760;BME280;3924;48.830;9.262;2023-02-22T14:03:34;98180.75;;;15.11;56.15
7760;BME280;3924;48.830;9.262;2023-02-22T14:06:04;98171.97;;;15.05;56.43
7760;BME280;3924;48.830;9.262;2023-02-22T14:13:27;98184.59;;;14.50;57.31
7760;BME280;3924;48.830;9.262;2023-02-22T14:18:30;98172.81;;;14.12;58.06
7760;BME280;3924;48.830;9.262;2023-02-22T14:21:18;98173.19;;;14.02;58.03
7760;BME280;3924;48.830;9.262;2023-02-22T14:23:47;98165.19;;;13.96;58.09
7760;BME280;3924;48.830;9.262;2023-02-22T14:26:36;98169.84;;;13.96;58.33
7760;BME280;3924;48.830;9.262;2023-02-22T14:29:17;98166.31;;;13.95;58.22
7760;BME280;3924;48.830;9.262;2023-02-22T14:34:20;98170.66;;;13.88;58.38
7760;BME280;3924;48.830;9.262;2023-02-22T14:37:25;98166.16;;;13.83;58.57
7760;BME280;3924;48.830;9.262;2023-02-22T14:40:18;98164.25;;;13.75;58.57
7760;BME280;3924;48.830;9.262;2023-02-22T14:42:50;98169.41;;;13.68;58.81
7760;BME280;3924;48.830;9.262;2023-02-22T14:45:26;98168.44;;;13.64;58.74
7760;BME280;3924;48.830;9.262;2023-02-22T14:50:41;98171.81;;;13.61;59.32
7760;BME280;3924;48.830;9.262;2023-02-22T14:55:41;98168.13;;;13.57;59.17
7760;BME280;3924;48.830;9.262;2023-02-22T14:58:19;98175.16;;;13.58;59.40
7760;BME280;3924;48.830;9.262;2023-02-22T15:00:49;98166.53;;;13.56;59.48
7760;BME280;3924;48.830;9.262;2023-02-22T15:05:47;98178.53;;;13.55;59.68
7760;BME280;3924;48.830;9.262;2023-02-22T15:08:17;98175.66;;;13.51;59.67
7760;BME280;3924;48.830;9.262;2023-02-22T15:10:52;98170.69;;;13.45;59.91
7760;BME280;3924;48.830;9.262;2023-02-22T15:13:26;98167.00;;;13.40;60.11
7760;BME280;3924;48.830;9.262;2023-02-22T15:15:55;98167.16;;;13.35;60.43
7760;BME280;3924;48.830;9.262;2023-02-22T15:18:32;98173.88;;;13.29;60.08
7760;BME280;3924;48.830;9.262;2023-02-22T15:21:13;98170.50;;;13.24;60.46
7760;BME280;3924;48.830;9.262;2023-02-22T15:23:46;98175.81;;;13.20;60.72
7760;BME280;3924;48.830;9.262;2023-02-22T15:26:26;98177.41;;;13.21;60.55
7760;BME280;3924;48.830;9.262;2023-02-22T15:28:56;98170.97;;;13.17;60.71
7760;BME280;3924;48.830;9.262;2023-02-22T15:33:53;98171.44;;;13.10;60.93
7760;BME280;3924;48.830;9.262;2023-02-22T15:36:26;98174.00;;;13.07;61.12
7760;BME280;3924;48.830;9.262;2023-02-22T15:38:53;98175.13;;;13.06;61.13
7760;BME280;3924;48.830;9.262;2023-02-22T15:41:29;98175.75;;;13.03;61.33
7760;BME280;3924;48.830;9.262;2023-02-22T15:46:29;98176.22;;;12.96;61.37
7760;BME280;3924;48.830;9.262;2023-02-22T15:51:39;98179.72;;;12.88;61.74
7760;BME280;3924;48.830;9.262;2023-02-22T15:54:07;98180.38;;;12.85;61.71
7760;BME280;3924;48.830;9.262;2023-02-22T15:56:52;98177.97;;;12.83;62.08
7760;BME280;3924;48.830;9.262;2023-02-22T15:59:24;98174.06;;;12.76;62.33
7760;BME280;3924;48.830;9.262;2023-02-22T16:01:56;98172.31;;;12.71;62.40
7760;BME280;3924;48.830;9.262;2023-02-22T16:04:26;98175.03;;;12.71;62.56
7760;BME280;3924;48.830;9.262;2023-02-22T16:07:04;98170.88;;;12.65;62.49
7760;BME280;3924;48.830;9.262;2023-02-22T16:09:33;98185.25;;;12.66;62.64
7760;BME280;3924;48.830;9.262;2023-02-22T16:12:23;98179.34;;;12.64;62.94